Time;durP1;ratioP1;P1;durP2;ratioP2;P2;SDS_P1;SDS_P2;PMS_P1;PMS_P2;Temp;Humidity;BMP_temperature;BMP_pressure;BME280_temperature;BME280_humidity;BME280_pressure;Samples;Min_cycle;Max_cycle;Signal;HPM_P1;HPM_P2
2022/07/06 00:01:39;;;;;;;4.68;2.95;;;;;;;16.15;86.11;95987.38;5046902;28;20048;-77
2022/07/06 00:04:05;;;;;;;4.55;2.90;;;;;;;16.18;85.39;95980.69;5047389;28;20517;-76
2022/07/06 00:06:31;;;;;;;5.70;3.17;;;;;;;16.32;86.33;95992.09;5031026;28;20091;-78
2022/07/06 00:08:57;;;;;;;7.20;2.97;;;;;;;16.33;85.82;95993.66;5030395;28;20052;-77
2022/07/06 00:11:23;;;;;;;4.40;2.88;;;;;;;16.37;85.41;95997.31;5047112;28;20152;-77
2022/07/06 00:13:49;;;;;;;5.47;3.20;;;;;;;16.34;85.83;95992.59;5030467;28;20449;-78
2022/07/06 00:16:14;;;;;;;9.40;2.88;;;;;;;16.37;85.99;95989.34;5031969;28;20099;-77
2022/07/06 00:18:40;;;;;;;5.07;2.97;;;;;;;16.40;87.29;95983.44;5052429;28;20049;-77
2022/07/06 00:21:06;;;;;;;6.88;3.17;;;;;;;16.32;88.22;95986.78;5049242;28;20276;-77
2022/07/06 00:23:31;;;;;;;9.02;3.35;;;;;;;16.34;88.00;95983.84;5052212;28;20056;-77
2022/07/06 00:25:57;;;;;;;6.63;3.00;;;;;;;16.39;87.91;95986.38;5051924;28;20053;-77
2022/07/06 00:28:22;;;;;;;10.80;3.13;;;;;;;16.29;89.13;95984.69;5050418;28;20037;-77
2022/07/06 00:30:47;;;;;;;3.35;2.70;;;;;;;16.31;88.46;95984.44;5046308;28;20052;-77
2022/07/06 00:33:13;;;;;;;6.43;3.00;;;;;;;16.24;87.96;95974.19;5052047;28;20075;-77
2022/07/06 00:35:38;;;;;;;4.57;3.00;;;;;;;16.22;87.05;95982.47;5025942;28;20036;-78
2022/07/06 00:38:04;;;;;;;4.43;3.03;;;;;;;16.18;87.91;95991.31;5030549;28;20037;-78
2022/07/06 00:40:30;;;;;;;7.07;3.08;;;;;;;16.18;88.11;95981.47;5048111;28;20045;-78
2022/07/06 00:42:56;;;;;;;5.15;3.00;;;;;;;16.14;88.47;95979.69;5052157;28;20487;-77
2022/07/06 00:45:21;;;;;;;4.93;3.30;;;;;;;16.07;89.33;95980.84;5033626;28;20052;-77
2022/07/06 00:47:47;;;;;;;5.07;3.20;;;;;;;16.11;91.00;95979.19;5049028;28;20041;-76
2022/07/06 00:50:17;;;;;;;3.92;3.00;;;;;;;16.08;90.95;95977.13;5045815;28;20446;-78
2022/07/06 00:52:47;;;;;;;5.35;3.30;;;;;;;16.06;91.85;95973.97;5051436;28;20116;-78
2022/07/06 00:55:15;;;;;;;7.18;3.40;;;;;;;16.05;92.49;95967.09;5051392;28;20044;-77
2022/07/06 00:57:41;;;;;;;5.05;2.92;;;;;;;16.01;93.57;95966.09;5049020;28;20041;-78
2022/07/06 01:00:09;;;;;;;5.43;3.20;;;;;;;15.92;94.16;95954.59;5043604;28;20418;-77
2022/07/06 01:02:35;;;;;;;5.57;3.10;;;;;;;16.01;93.70;95950.16;5051256;28;20075;-78
2022/07/06 01:05:04;;;;;;;4.82;2.97;;;;;;;16.05;94.94;95964.44;5033846;28;20044;-77
2022/07/06 01:07:30;;;;;;;7.65;3.30;;;;;;;16.10;94.82;95964.34;5049704;28;20514;-77
2022/07/06 01:09:56;;;;;;;5.47;3.33;;;;;;;16.05;95.42;95956.47;5049472;28;20041;-77
2022/07/06 01:12:21;;;;;;;5.18;3.28;;;;;;;16.10;94.14;95969.66;5033423;28;20048;-77
2022/07/06 01:14:47;;;;;;;5.15;3.28;;;;;;;16.05;94.52;95961.00;5033142;28;20041;-77
2022/07/06 01:17:14;;;;;;;5.75;3.03;;;;;;;16.02;96.20;95961.56;5051538;28;20045;-77
2022/07/06 01:19:40;;;;;;;6.50;3.30;;;;;;;16.00;96.17;95953.91;5049038;28;20053;-77
2022/07/06 01:22:06;;;;;;;4.53;3.28;;;;;;;15.92;95.47;95946.63;5051042;28;20037;-77
2022/07/06 01:24:34;;;;;;;4.93;3.00;;;;;;;15.94;95.77;95941.81;5050719;28;20041;-77
2022/07/06 01:27:00;;;;;;;7.95;3.42;;;;;;;15.89;96.39;95947.22;5051419;28;20139;-77
2022/07/06 01:29:26;;;;;;;6.55;3.22;;;;;;;15.88;96.68;95945.63;5026650;28;20128;-78
2022/07/06 01:31:51;;;;;;;5.13;3.30;;;;;;;15.80;96.55;95938.34;5049917;28;20045;-78
2022/07/06 01:34:17;;;;;;;3.75;2.92;;;;;;;15.80;96.92;95943.66;5049827;28;20498;-77
2022/07/06 01:36:44;;;;;;;5.57;3.30;;;;;;;15.72;97.33;95939.78;5048882;28;20071;-77
2022/07/06 01:39:10;;;;;;;7.47;3.25;;;;;;;15.66;97.98;95944.38;5044936;28;20106;-77
2022/07/06 01:41:36;;;;;;;5.18;3.53;;;;;;;15.57;97.93;95935.50;5048062;28;20045;-78
2022/07/06 01:44:02;;;;;;;4.82;3.78;;;;;;;15.51;99.96;95936.66;5049603;28;20552;-78
2022/07/06 01:46:28;;;;;;;5.65;2.90;;;;;;;15.42;100.00;95944.50;5032148;28;20045;-76
2022/07/06 01:48:53;;;;;;;5.13;3.20;;;;;;;15.46;99.57;95955.28;5048722;28;20091;-77
2022/07/06 01:51:19;;;;;;;6.88;3.30;;;;;;;15.39;99.73;95950.38;5032808;28;20082;-77
2022/07/06 01:53:45;;;;;;;5.25;2.92;;;;;;;15.40;100.00;95957.25;5032764;28;20517;-77
2022/07/06 01:56:11;;;;;;;4.88;3.33;;;;;;;15.42;100.00;95953.22;5033514;28;20108;-77
2022/07/06 01:58:37;;;;;;;6.40;3.40;;;;;;;15.36;100.00;95956.25;5031469;28;20052;-77
2022/07/06 02:01:10;;;;;;;5.97;3.50;;;;;;;15.37;100.00;95955.97;5050339;28;20070;-77
2022/07/06 02:03:36;;;;;;;7.70;3.70;;;;;;;15.31;100.00;95954.47;5049507;28;20123;-76
2022/07/06 02:06:03;;;;;;;5.95;3.65;;;;;;;15.28;100.00;95955.03;5033725;28;20040;-77
2022/07/06 02:08:29;;;;;;;4.93;3.13;;;;;;;15.27;100.00;95958.78;5048224;28;20037;-77
2022/07/06 02:10:54;;;;;;;5.25;3.47;;;;;;;15.20;100.00;95959.13;5047865;28;20056;-77
2022/07/06 02:13:20;;;;;;;4.85;3.33;;;;;;;15.12;100.00;95951.03;5049441;28;20037;-77
2022/07/06 02:15:45;;;;;;;5.38;3.20;;;;;;;15.10;100.00;95947.88;5050633;28;20041;-77
2022/07/06 02:18:11;;;;;;;5.10;3.20;;;;;;;15.06;100.00;95942.38;5049869;28;20056;-76
2022/07/06 02:20:36;;;;;;;7.13;3.45;;;;;;;15.04;100.00;95966.53;5045559;28;20059;-77
2022/07/06 02:23:03;;;;;;;5.78;3.50;;;;;;;15.05;100.00;95968.06;5049408;28;20072;-77
2022/07/06 02:25:28;;;;;;;5.00;3.40;;;;;;;15.00;100.00;95960.22;5050942;28;20044;-78
2022/07/06 02:27:54;;;;;;;7.28;3.42;;;;;;;14.98;100.00;95962.34;5049015;28;20041;-77
2022/07/06 02:30:19;;;;;;;6.85;3.30;;;;;;;14.95;100.00;95968.22;5043953;28;20063;-78
2022/07/06 02:32:45;;;;;;;7.15;3.45;;;;;;;14.93;100.00;95970.38;5049742;28;20076;-77
2022/07/06 02:35:10;;;;;;;7.35;3.65;;;;;;;14.89;100.00;95964.06;5049375;28;20033;-78
2022/07/06 02:37:36;;;;;;;8.45;3.10;;;;;;;14.81;100.00;95962.06;5042556;28;20053;-77
2022/07/06 02:40:02;;;;;;;6.72;3.30;;;;;;;14.81;100.00;95962.84;5044011;28;20041;-77
2022/07/06 02:42:27;;;;;;;5.93;3.67;;;;;;;14.77;100.00;95966.34;5049594;28;20040;-78
2022/07/06 02:44:53;;;;;;;5.55;3.45;;;;;;;14.79;100.00;95965.00;5049722;28;20043;-78
2022/07/06 02:47:19;;;;;;;6.63;3.45;;;;;;;14.70;100.00;95956.88;5049848;28;20033;-77
2022/07/06 02:49:44;;;;;;;6.40;3.20;;;;;;;14.75;100.00;95963.19;5030058;28;20040;-78
2022/07/06 02:52:10;;;;;;;5.68;3.75;;;;;;;14.78;100.00;95962.63;5031237;28;20402;-77
2022/07/06 02:54:35;;;;;;;4.30;3.13;;;;;;;14.71;100.00;95971.72;5048678;28;20044;-77
2022/07/06 02:57:01;;;;;;;5.95;3.33;;;;;;;14.60;100.00;95957.00;5032077;28;20072;-79
2022/07/06 02:59:26;;;;;;;6.03;3.58;;;;;;;14.69;100.00;95971.19;5044135;28;20053;-78
2022/07/06 03:01:52;;;;;;;7.78;3.47;;;;;;;14.68;100.00;95979.44;5047992;28;20037;-78
2022/07/06 03:04:17;;;;;;;6.90;3.35;;;;;;;14.62;100.00;95978.69;5031461;28;20037;-78
2022/07/06 03:06:43;;;;;;;5.10;3.30;;;;;;;14.63;100.00;95977.63;5047964;28;20048;-79
2022/07/06 03:09:08;;;;;;;7.95;3.65;;;;;;;14.63;100.00;95977.63;5036952;28;20414;-78
2022/07/06 03:11:36;;;;;;;5.78;3.67;;;;;;;14.62;100.00;95978.69;5042837;28;20045;-78
2022/07/06 03:14:05;;;;;;;5.55;3.60;;;;;;;14.60;100.00;95983.47;5047837;28;20048;-77
2022/07/06 03:16:32;;;;;;;6.07;3.25;;;;;;;14.54;100.00;95979.31;5048639;28;20044;-78
2022/07/06 03:18:57;;;;;;;8.20;4.10;;;;;;;14.52;100.00;95986.75;5046019;28;20045;-78
2022/07/06 03:21:24;;;;;;;7.07;3.72;;;;;;;14.45;100.00;95988.94;5048443;28;20071;-78
2022/07/06 03:23:50;;;;;;;5.80;3.60;;;;;;;14.45;100.00;95986.28;5030664;28;20502;-79
2022/07/06 03:26:16;;;;;;;5.00;3.40;;;;;;;14.45;100.00;95988.94;5049006;28;20033;-78
2022/07/06 03:28:41;;;;;;;4.88;3.55;;;;;;;14.44;100.00;95984.72;5036330;28;20112;-78
2022/07/06 03:31:07;;;;;;;6.80;3.78;;;;;;;14.37;100.00;95980.53;5030476;28;20041;-77
2022/07/06 03:33:32;;;;;;;6.90;3.40;;;;;;;14.27;100.00;95980.66;5048769;28;20076;-77
2022/07/06 03:35:58;;;;;;;4.72;3.45;;;;;;;14.28;100.00;95979.59;5049400;28;20044;-77
2022/07/06 03:38:23;;;;;;;5.05;3.45;;;;;;;14.26;100.00;95979.06;5040478;28;20048;-76
2022/07/06 03:40:49;;;;;;;7.78;3.90;;;;;;;14.37;100.00;95980.53;5046141;28;20039;-77
2022/07/06 03:43:14;;;;;;;4.95;3.40;;;;;;;14.29;100.00;95981.16;5049906;28;20041;-77
2022/07/06 03:45:40;;;;;;;6.45;3.75;;;;;;;14.26;100.00;95979.06;5048585;28;20063;-77
2022/07/06 03:48:06;;;;;;;6.28;3.47;;;;;;;14.19;100.00;95978.63;5029423;28;20041;-77
2022/07/06 03:50:31;;;;;;;7.47;3.80;;;;;;;14.27;100.00;95978.00;5046146;28;20554;-77
2022/07/06 03:52:57;;;;;;;4.97;3.72;;;;;;;14.18;100.00;95977.84;5053201;28;20040;-75
2022/07/06 03:55:22;;;;;;;5.30;3.67;;;;;;;14.28;100.00;95976.94;5034927;28;20117;-76
2022/07/06 03:57:48;;;;;;;4.78;3.40;;;;;;;14.22;100.00;95983.34;5051960;28;21034;-77
2022/07/06 04:00:14;;;;;;;5.65;3.75;;;;;;;14.30;100.00;95990.69;5052409;28;20048;-76
2022/07/06 04:02:40;;;;;;;5.95;3.50;;;;;;;14.34;100.00;95978.47;5031912;28;20692;-76
2022/07/06 04:05:06;;;;;;;8.25;4.30;;;;;;;14.28;100.00;95982.25;5044619;28;20073;-76
2022/07/06 04:07:31;;;;;;;8.35;4.20;;;;;;;14.41;100.00;95979.97;5044337;28;20048;-76
2022/07/06 04:09:57;;;;;;;6.38;3.58;;;;;;;14.44;100.00;95979.41;5050904;28;20577;-75
2022/07/06 04:12:23;;;;;;;5.47;3.75;;;;;;;14.44;100.00;95985.50;5052450;28;20045;-76
2022/07/06 04:14:48;;;;;;;5.32;3.35;;;;;;;14.32;100.00;95988.56;5035719;28;20045;-77
2022/07/06 04:19:58;;;;;;;7.72;3.55;;;;;;;14.51;100.00;95993.09;5045496;28;20041;-77
2022/07/06 04:22:23;;;;;;;5.25;3.72;;;;;;;14.55;100.00;95991.47;5050698;28;20045;-77
2022/07/06 04:24:49;;;;;;;6.95;4.00;;;;;;;14.71;100.00;95995.56;5052166;28;20060;-78
2022/07/06 04:27:14;;;;;;;6.80;3.70;;;;;;;14.77;100.00;95987.53;5049132;28;20056;-77
2022/07/06 04:29:40;;;;;;;7.43;3.22;;;;;;;14.81;100.00;95988.53;5051180;28;20040;-77
2022/07/06 04:32:05;;;;;;;8.57;3.72;;;;;;;14.84;100.00;95993.28;5033493;28;20045;-76
2022/07/06 04:34:31;;;;;;;8.20;3.60;;;;;;;14.89;100.00;95991.34;5051517;28;20402;-76
2022/07/06 04:36:56;;;;;;;5.93;3.80;;;;;;;14.92;100.00;96000.59;5032722;28;20040;-76
2022/07/06 04:39:22;;;;;;;4.70;3.65;;;;;;;14.93;100.00;96002.19;5051338;28;20041;-76
2022/07/06 04:41:47;;;;;;;7.10;3.83;;;;;;;14.99;100.00;95995.72;5032441;28;20044;-77
2022/07/06 04:44:13;;;;;;;5.40;3.72;;;;;;;15.04;100.00;96008.94;5052200;28;20072;-76
2022/07/06 04:46:38;;;;;;;5.13;3.92;;;;;;;15.04;100.00;95997.53;5051068;28;20042;-77
2022/07/06 04:49:04;;;;;;;5.90;3.42;;;;;;;15.13;100.00;96005.63;5048368;28;20116;-77
2022/07/06 04:51:30;;;;;;;5.43;3.50;;;;;;;15.17;100.00;96002.13;5051246;28;20084;-76
2022/07/06 04:53:56;;;;;;;6.78;3.83;;;;;;;15.21;100.00;96007.63;5051628;28;20072;-76
2022/07/06 04:56:21;;;;;;;5.95;3.50;;;;;;;15.15;100.00;96003.47;5050387;28;20099;-76
2022/07/06 04:58:47;;;;;;;5.97;3.50;;;;;;;15.27;100.00;96006.50;5032270;28;20061;-76
2022/07/06 05:01:15;;;;;;;8.15;3.67;;;;;;;15.32;100.00;96009.06;5050286;28;20246;-77
2022/07/06 05:03:41;;;;;;;6.18;3.80;;;;;;;15.33;100.00;96002.69;5051989;28;20029;-77
2022/07/06 05:06:07;;;;;;;5.50;3.65;;;;;;;15.34;100.00;96012.25;5046325;28;20495;-76
2022/07/06 05:08:33;;;;;;;6.00;3.78;;;;;;;15.38;100.00;96002.59;5050524;28;20052;-76
2022/07/06 05:11:00;;;;;;;7.43;3.70;;;;;;;15.40;100.00;96000.47;5032430;28;20037;-77
2022/07/06 05:13:25;;;;;;;7.70;3.75;;;;;;;15.50;100.00;96004.03;5051447;28;20033;-77
2022/07/06 05:15:50;;;;;;;4.72;3.50;;;;;;;15.64;100.00;96004.88;5050998;28;20033;-77
2022/07/06 05:18:16;;;;;;;5.88;3.80;;;;;;;15.83;100.00;96001.44;5049723;28;20127;-77
2022/07/06 05:20:42;;;;;;;5.57;3.13;;;;;;;15.95;100.00;96007.09;5050394;28;20091;-78
2022/07/06 05:23:08;;;;;;;6.75;3.75;;;;;;;16.10;100.00;96001.53;5050851;28;20039;-78
2022/07/06 05:25:33;;;;;;;9.60;3.65;;;;;;;16.16;100.00;96007.53;5051038;28;20045;-78
2022/07/06 05:27:59;;;;;;;5.75;3.65;;;;;;;16.30;100.00;96010.19;5032481;28;20029;-79
2022/07/06 05:30:25;;;;;;;6.22;3.80;;;;;;;16.38;100.00;96006.84;5031527;28;20448;-78
2022/07/06 05:32:51;;;;;;;6.32;3.60;;;;;;;16.43;100.00;96004.13;5050243;28;20094;-78
2022/07/06 05:35:17;;;;;;;7.13;3.50;;;;;;;16.71;97.98;96006.78;5029381;28;20049;-78
2022/07/06 05:37:42;;;;;;;5.07;3.30;;;;;;;16.72;98.18;96005.69;5030880;28;20525;-79
2022/07/06 05:40:08;;;;;;;8.13;3.65;;;;;;;16.87;96.45;96006.47;5048215;28;20037;-78
2022/07/06 05:42:34;;;;;;;8.43;3.33;;;;;;;16.89;92.98;96010.41;5032947;28;20559;-78
2022/07/06 05:44:59;;;;;;;4.93;3.60;;;;;;;16.96;94.05;96018.00;5033005;28;20045;-78
2022/07/06 05:50:12;;;;;;;5.40;3.47;;;;;;;16.99;91.52;96020.06;5045651;28;20056;-78
2022/07/06 05:52:39;;;;;;;10.65;3.60;;;;;;;16.98;91.06;96029.09;5051065;28;20036;-78
2022/07/06 05:55:05;;;;;;;6.25;3.38;;;;;;;16.94;90.64;96017.50;5050690;28;20839;-78
2022/07/06 05:57:31;;;;;;;5.00;3.40;;;;;;;17.04;89.73;96033.25;5032579;28;20037;-79
2022/07/06 05:59:56;;;;;;;5.28;3.42;;;;;;;17.02;89.73;96035.41;5040979;28;20422;-79
2022/07/06 06:02:22;;;;;;;6.10;3.47;;;;;;;17.03;89.50;96021.03;5050998;28;20048;-77
2022/07/06 06:04:47;;;;;;;6.97;3.20;;;;;;;17.12;88.23;96027.25;5049346;28;20066;-77
2022/07/06 06:07:13;;;;;;;4.88;3.42;;;;;;;17.12;88.54;96031.75;5042883;28;20037;-80
2022/07/06 06:09:38;;;;;;;8.77;4.35;;;;;;;17.20;87.50;96036.38;5047000;28;20037;-76
2022/07/06 06:12:03;;;;;;;9.63;3.70;;;;;;;17.11;88.83;96028.31;5048977;28;20079;-77
2022/07/06 06:14:29;;;;;;;5.90;3.47;;;;;;;17.18;89.26;96037.75;5031013;28;20090;-77
2022/07/06 06:16:54;;;;;;;8.50;3.53;;;;;;;17.25;86.94;96044.22;5031660;28;20048;-76
2022/07/06 06:19:20;;;;;;;11.38;3.70;;;;;;;17.43;84.71;96037.22;5040281;28;20139;-77
2022/07/06 06:21:45;;;;;;;6.38;3.30;;;;;;;17.40;85.56;96037.81;5047983;28;20041;-77
2022/07/06 06:24:11;;;;;;;6.05;3.40;;;;;;;17.40;86.44;96040.47;5048863;28;20054;-77
2022/07/06 06:26:37;;;;;;;6.40;3.63;;;;;;;17.37;85.76;96035.75;5049925;28;20041;-76
2022/07/06 06:29:02;;;;;;;4.80;3.40;;;;;;;17.46;86.44;96039.25;5045055;28;20563;-77
2022/07/06 06:31:28;;;;;;;6.45;3.67;;;;;;;17.59;84.76;96042.19;5048288;28;20041;-77
2022/07/06 06:33:53;;;;;;;8.10;3.65;;;;;;;17.64;84.86;96039.41;5035608;28;20432;-76
2022/07/06 06:36:19;;;;;;;8.13;3.72;;;;;;;17.52;87.21;96036.50;5050919;28;20403;-77
2022/07/06 06:38:44;;;;;;;6.97;3.63;;;;;;;17.59;87.70;96039.53;5048534;28;20049;-76
2022/07/06 06:41:10;;;;;;;6.80;3.40;;;;;;;17.62;86.98;96046.91;5045926;28;20114;-80
2022/07/06 06:43:35;;;;;;;5.07;3.30;;;;;;;17.68;86.97;96032.38;5048827;28;20068;-77
2022/07/06 06:46:01;;;;;;;5.78;3.05;;;;;;;17.86;86.29;96035.16;5049015;28;20549;-76
2022/07/06 06:48:26;;;;;;;6.75;3.47;;;;;;;17.81;85.17;96036.09;5029769;28;20083;-79
2022/07/06 06:50:52;;;;;;;6.07;3.40;;;;;;;17.90;82.15;96041.47;5030581;28;20457;-78
2022/07/06 06:53:17;;;;;;;5.75;3.30;;;;;;;17.91;82.47;96037.75;5045909;28;20037;-78
2022/07/06 06:55:43;;;;;;;5.00;3.20;;;;;;;17.99;82.40;96039.69;5044671;28;20048;-79
2022/07/06 06:58:09;;;;;;;7.30;3.80;;;;;;;17.92;81.27;96039.34;5045507;28;20041;-80
2022/07/06 07:00:34;;;;;;;6.95;4.13;;;;;;;17.95;80.51;96034.16;5030386;28;20041;-79
2022/07/06 07:03:00;;;;;;;8.88;3.45;;;;;;;17.88;81.24;96041.75;5043589;28;20068;-77
2022/07/06 07:05:26;;;;;;;7.00;3.40;;;;;;;18.01;79.95;96034.84;5046854;28;20037;-77
2022/07/06 07:07:51;;;;;;;5.30;3.17;;;;;;;17.97;80.81;96033.88;5048068;28;20071;-77
2022/07/06 07:10:17;;;;;;;4.93;3.42;;;;;;;18.08;79.37;96037.84;5047065;28;20128;-77
2022/07/06 07:12:46;;;;;;;7.28;3.45;;;;;;;18.09;79.01;96044.75;5049253;28;20460;-79
2022/07/06 07:15:13;;;;;;;6.07;3.50;;;;;;;18.29;78.84;96048.00;5021289;28;20099;-79
2022/07/06 07:17:39;;;;;;;5.82;3.38;;;;;;;18.38;78.96;96040.84;5030078;28;20037;-80
2022/07/06 07:20:06;;;;;;;7.07;3.28;;;;;;;18.24;76.65;96040.13;5040785;28;20063;-79
2022/07/06 07:22:32;;;;;;;5.82;3.45;;;;;;;18.13;76.93;96035.06;5030868;28;20053;-78
2022/07/06 07:24:58;;;;;;;7.57;3.47;;;;;;;18.17;75.94;96041.38;5032480;28;20506;-77
2022/07/06 07:27:25;;;;;;;6.15;3.25;;;;;;;18.36;75.00;96045.69;5052005;28;20052;-78
2022/07/06 07:29:50;;;;;;;5.05;3.45;;;;;;;18.31;76.11;96045.81;5051323;28;20589;-78
2022/07/06 07:32:16;;;;;;;6.82;3.72;;;;;;;18.61;75.32;96044.22;5032889;28;20104;-80
2022/07/06 07:34:42;;;;;;;6.50;3.13;;;;;;;18.68;74.00;96033.13;5034358;28;20076;-79
2022/07/06 07:37:08;;;;;;;6.47;3.80;;;;;;;18.84;71.89;96041.50;5052414;28;20521;-78
2022/07/06 07:39:33;;;;;;;7.65;3.42;;;;;;;18.63;73.48;96030.59;5031455;28;20066;-81
2022/07/06 07:41:59;;;;;;;7.30;3.60;;;;;;;18.59;74.06;96037.63;5051338;28;20119;-78
2022/07/06 07:44:26;;;;;;;5.47;3.47;;;;;;;18.66;73.82;96024.63;5050487;28;20518;-78
2022/07/06 07:46:52;;;;;;;5.43;3.50;;;;;;;18.86;74.70;96040.13;5044991;28;20442;-78
2022/07/06 07:49:19;;;;;;;7.60;3.53;;;;;;;18.91;72.11;96025.84;5050211;28;20045;-78
2022/07/06 07:51:46;;;;;;;4.80;3.20;;;;;;;18.86;74.94;96034.78;5052835;28;20143;-78
2022/07/06 07:54:12;;;;;;;7.68;3.60;;;;;;;18.83;72.67;96035.38;5032758;28;20789;-77
2022/07/06 07:56:40;;;;;;;5.45;3.33;;;;;;;18.89;71.09;96032.59;5057927;28;20044;-80
2022/07/06 07:59:06;;;;;;;6.53;3.30;;;;;;;18.90;71.44;96034.16;5031502;28;20430;-78
2022/07/06 08:01:32;;;;;;;7.18;3.60;;;;;;;18.85;72.67;96035.84;5051789;28;20041;-80
2022/07/06 08:03:58;;;;;;;8.75;3.60;;;;;;;18.94;67.39;96035.91;5033760;28;20576;-79
2022/07/06 08:06:24;;;;;;;5.30;3.45;;;;;;;18.93;69.84;96033.53;5032619;28;20045;-79
2022/07/06 08:08:49;;;;;;;5.68;3.47;;;;;;;18.99;66.08;96032.28;5032766;28;20060;-79
2022/07/06 08:11:15;;;;;;;6.80;3.30;;;;;;;18.99;66.56;96033.09;5047548;28;20591;-79
2022/07/06 08:13:41;;;;;;;4.40;3.10;;;;;;;19.10;58.75;96033.56;5032802;28;20625;-82
2022/07/06 08:16:06;;;;;;;6.18;3.33;;;;;;;19.13;59.23;96038.28;5046315;28;20044;-80
2022/07/06 08:18:32;;;;;;;7.55;3.20;;;;;;;19.24;59.75;96033.44;5048162;28;20049;-81
2022/07/06 08:20:57;;;;;;;9.98;3.70;;;;;;;19.18;60.66;96029.38;5052175;28;20044;-79
2022/07/06 08:23:23;;;;;;;9.27;3.50;;;;;;;19.16;63.62;96036.88;5033790;28;20045;-79
2022/07/06 08:25:49;;;;;;;6.22;3.28;;;;;;;19.19;63.10;96037.06;5051148;28;20538;-78
2022/07/06 08:28:14;;;;;;;5.80;3.30;;;;;;;19.25;61.10;96039.56;5031081;28;20045;-80
2022/07/06 08:30:40;;;;;;;6.80;3.20;;;;;;;19.24;63.29;96037.97;5049531;28;20116;-80
2022/07/06 08:33:05;;;;;;;4.95;3.20;;;;;;;19.24;62.58;96035.31;5032727;28;20048;-81
2022/07/06 08:35:31;;;;;;;5.22;3.38;;;;;;;19.44;62.77;96045.41;5049265;28;20045;-79
2022/07/06 08:37:56;;;;;;;7.25;3.30;;;;;;;19.45;61.82;96038.97;5046877;28;20430;-80
2022/07/06 08:40:22;;;;;;;7.50;3.45;;;;;;;19.76;61.30;96043.34;5047588;28;20080;-81
2022/07/06 08:42:56;;;;;;;9.85;3.30;;;;;;;19.69;63.38;96038.47;5034030;28;20060;-80
2022/07/06 08:45:22;;;;;;;6.18;3.35;;;;;;;19.81;63.61;96039.75;5050906;28;20494;-82
2022/07/06 08:47:49;;;;;;;4.75;3.47;;;;;;;19.94;62.67;96040.69;5032624;28;20040;-81
2022/07/06 08:50:16;;;;;;;7.13;3.80;;;;;;;20.13;63.05;96035.81;5049013;28;20132;-83
2022/07/06 08:52:42;;;;;;;6.57;3.17;;;;;;;20.16;62.36;96040.50;5052236;28;20052;-79
2022/07/06 08:55:09;;;;;;;14.80;3.60;;;;;;;20.11;62.20;96042.56;5033078;28;20044;-79
2022/07/06 08:57:35;;;;;;;5.05;3.60;;;;;;;20.24;63.52;96036.22;5044985;28;20041;-79
2022/07/06 09:00:00;;;;;;;5.18;3.40;;;;;;;20.20;62.02;96041.44;5032779;28;20178;-79
2022/07/06 09:02:27;;;;;;;6.57;3.65;;;;;;;20.31;62.00;96057.13;5033471;28;20033;-79
2022/07/06 09:04:56;;;;;;;4.82;3.40;;;;;;;20.22;61.40;96044.56;5032961;28;20079;-79
2022/07/06 09:07:21;;;;;;;7.78;3.63;;;;;;;20.36;62.48;96049.72;5040206;28;20041;-80
2022/07/06 09:09:47;;;;;;;8.23;3.78;;;;;;;20.50;60.59;96054.88;5046817;28;20056;-79
2022/07/06 09:12:13;;;;;;;9.50;3.47;;;;;;;20.65;60.63;96056.25;5049864;28;20419;-79
2022/07/06 09:14:38;;;;;;;9.50;3.90;;;;;;;20.84;61.32;96061.22;5030054;28;20071;-79
2022/07/06 09:17:06;;;;;;;5.05;3.30;;;;;;;20.92;62.22;96055.03;5030305;28;20047;-80
2022/07/06 09:19:34;;;;;;;6.40;3.83;;;;;;;20.98;61.24;96058.31;5050393;28;20140;-79
2022/07/06 09:22:04;;;;;;;8.05;4.18;;;;;;;21.09;61.11;96054.16;5049729;28;20444;-79
2022/07/06 09:24:31;;;;;;;8.52;3.83;;;;;;;20.88;58.75;96056.78;5030781;28;20048;-79
2022/07/06 09:26:58;;;;;;;5.68;3.30;;;;;;;21.38;61.24;96059.84;5032141;28;20044;-80
2022/07/06 09:29:31;;;;;;;5.82;3.30;;;;;;;21.65;60.64;96063.91;5048979;28;20468;-80
2022/07/06 09:32:01;;;;;;;6.43;3.95;;;;;;;21.43;57.88;96063.09;5042018;28;20045;-79
2022/07/06 09:34:46;;;;;;;7.97;3.70;;;;;;;21.35;56.28;96060.47;5044155;28;20056;-79
2022/07/06 09:37:14;;;;;;;6.45;3.78;;;;;;;21.33;57.62;96057.34;5049379;28;20440;-79
2022/07/06 09:39:40;;;;;;;7.95;3.80;;;;;;;21.56;57.20;96065.84;5029390;28;20044;-79
2022/07/06 09:42:09;;;;;;;6.90;3.53;;;;;;;21.67;58.83;96063.59;5031923;28;20041;-79
2022/07/06 09:44:37;;;;;;;5.65;3.40;;;;;;;21.63;56.67;96072.25;5031321;28;20399;-79
2022/07/06 09:47:05;;;;;;;6.70;3.65;;;;;;;21.56;55.92;96072.00;5030850;28;20066;-78
2022/07/06 09:49:32;;;;;;;6.53;3.45;;;;;;;21.65;56.73;96074.63;5041489;28;20486;-79
2022/07/06 09:52:00;;;;;;;4.72;3.67;;;;;;;21.82;59.22;96062.97;5032585;28;20079;-79
2022/07/06 09:54:26;;;;;;;5.43;3.85;;;;;;;21.84;56.20;96068.00;5049649;28;20456;-79
2022/07/06 09:56:53;;;;;;;8.05;3.83;;;;;;;21.92;57.95;96070.63;5050001;28;20029;-79
2022/07/06 09:59:21;;;;;;;5.70;3.40;;;;;;;21.90;53.98;96059.44;5048078;28;20048;-79
2022/07/06 10:01:50;;;;;;;6.18;3.47;;;;;;;22.08;56.33;96067.31;5049881;28;20143;-79
2022/07/06 10:04:18;;;;;;;5.85;3.33;;;;;;;22.27;53.56;96062.25;5032263;28;20044;-79
2022/07/06 10:06:44;;;;;;;6.82;3.42;;;;;;;22.30;52.72;96056.22;5044018;28;20427;-79
2022/07/06 10:09:11;;;;;;;11.77;3.17;;;;;;;22.29;56.38;96064.59;5049054;28;20093;-79
2022/07/06 10:11:39;;;;;;;5.18;3.30;;;;;;;22.55;51.75;96066.25;5047693;28;20041;-79
2022/07/06 10:14:06;;;;;;;5.43;3.33;;;;;;;22.70;51.33;96070.97;5050625;28;20045;-80
2022/07/06 10:16:35;;;;;;;5.35;2.80;;;;;;;22.55;50.91;96064.34;5031749;28;20120;-79
2022/07/06 10:19:04;;;;;;;6.05;3.28;;;;;;;22.78;50.91;96058.56;5048681;28;20526;-77
2022/07/06 10:21:31;;;;;;;8.82;3.20;;;;;;;22.78;50.55;96058.56;5046070;28;20040;-77
2022/07/06 10:23:59;;;;;;;7.65;3.70;;;;;;;22.78;49.43;96059.31;5030014;28;20037;-76
2022/07/06 10:26:25;;;;;;;5.25;3.47;;;;;;;23.35;49.30;96054.97;5047876;28;20055;-77
2022/07/06 10:28:52;;;;;;;5.85;3.22;;;;;;;23.41;49.40;96055.50;5055863;28;20036;-79
2022/07/06 10:31:20;;;;;;;7.22;3.30;;;;;;;23.29;48.82;96045.59;5055561;28;20041;-78
2022/07/06 10:33:47;;;;;;;3.85;2.90;;;;;;;23.57;48.06;96044.06;5031795;28;20052;-78
2022/07/06 10:36:14;;;;;;;5.50;3.08;;;;;;;23.80;48.32;96052.38;5050345;28;20065;-80
2022/07/06 10:38:40;;;;;;;6.28;3.05;;;;;;;23.84;45.97;96043.28;5049143;28;20045;-79
2022/07/06 10:41:09;;;;;;;6.05;3.60;;;;;;;23.67;47.66;96048.97;5048295;28;20048;-80
2022/07/06 10:43:45;;;;;;;6.10;3.42;;;;;;;23.92;50.57;96044.31;5048710;28;20041;-78
2022/07/06 10:46:14;;;;;;;8.20;3.83;;;;;;;24.03;47.81;96042.69;5069574;28;20046;-77
2022/07/06 10:48:44;;;;;;;5.07;3.30;;;;;;;24.31;46.19;96047.25;5074302;28;20073;-76
2022/07/06 10:51:25;;;;;;;4.30;3.17;;;;;;;24.91;44.74;96038.31;5073842;28;20045;-77
2022/07/06 10:54:04;;;;;;;7.90;3.55;;;;;;;24.94;45.83;96043.03;5067536;28;20047;-85
2022/07/06 10:56:45;;;;;;;6.50;3.75;;;;;;;25.27;45.75;96033.75;5050711;28;20350;-76
2022/07/06 10:59:22;;;;;;;5.45;3.30;;;;;;;25.28;44.13;96035.31;5057019;28;20031;-80
2022/07/06 11:02:13;;;;;;;7.68;3.35;;;;;;;24.53;43.68;96039.72;5077017;28;20032;-81
2022/07/06 11:04:39;;;;;;;8.73;4.00;;;;;;;24.89;43.95;96033.28;5066711;28;20033;-83
2022/07/06 11:07:16;;;;;;;5.03;3.38;;;;;;;25.08;44.14;96037.97;5074095;28;20044;-85
2022/07/06 11:09:54;;;;;;;5.22;3.03;;;;;;;25.18;43.46;96046.63;5043315;28;20033;-88
2022/07/06 11:12:29;;;;;;;6.18;3.00;;;;;;;25.72;42.07;96037.78;5076990;28;20029;-78
2022/07/06 11:14:55;;;;;;;10.45;3.42;;;;;;;26.29;41.09;96042.72;5075342;28;20024;-80
2022/07/06 11:17:23;;;;;;;6.25;3.35;;;;;;;26.15;40.68;96032.47;5053307;28;20036;-79
2022/07/06 11:19:56;;;;;;;6.22;3.53;;;;;;;26.66;42.13;96044.88;5070650;28;20092;-79
2022/07/06 11:22:24;;;;;;;4.70;2.97;;;;;;;27.12;39.13;96036.75;5077464;28;20021;-80
2022/07/06 11:25:08;;;;;;;4.32;2.80;;;;;;;27.31;38.58;96041.25;5077533;28;20051;-79
2022/07/06 11:27:34;;;;;;;7.57;3.15;;;;;;;27.51;39.99;96026.88;5059226;28;20028;-80
2022/07/06 11:30:00;;;;;;;7.15;3.20;;;;;;;27.85;37.89;96037.69;5077306;28;20040;-80
2022/07/06 11:32:26;;;;;;;5.82;3.05;;;;;;;27.66;37.73;96028.59;5060531;28;20031;-78
2022/07/06 11:34:52;;;;;;;8.80;2.80;;;;;;;27.90;35.73;96038.16;5077558;28;20025;-78